Time;durP1;ratioP1;P1;durP2;ratioP2;P2;SDS_P1;SDS_P2;PMS_P1;PMS_P2;Temp;Humidity;BMP_temperature;BMP_pressure;BME280_temperature;BME280_humidity;BME280_pressure;Samples;Min_cycle;Max_cycle;Signal;HPM_P1;HPM_P2
2022/06/17 00:00:26;;;;;;;4.50;3.40;;;;;;;25.64;48.59;99827.51;1780486;80;21055;-57
2022/06/17 00:02:54;;;;;;;4.30;3.17;;;;;;;25.63;48.58;99831.30;1778544;80;21060;-56
2022/06/17 00:05:21;;;;;;;4.37;3.40;;;;;;;25.62;48.60;99822.33;1786237;80;21035;-57
2022/06/17 00:07:48;;;;;;;4.72;4.00;;;;;;;25.62;48.62;99825.59;1787357;80;21088;-56
2022/06/17 00:10:22;;;;;;;5.05;3.80;;;;;;;25.61;48.66;99827.51;1773944;80;21075;-57
2022/06/17 00:12:50;;;;;;;4.58;2.98;;;;;;;25.61;48.66;99826.15;1783445;80;21505;-57
2022/06/17 00:15:18;;;;;;;4.28;3.30;;;;;;;25.61;48.62;99825.31;1784896;80;21004;-57
2022/06/17 00:17:47;;;;;;;4.50;3.65;;;;;;;25.60;48.66;99825.05;1786038;79;21073;-57
2022/06/17 00:20:17;;;;;;;3.42;3.00;;;;;;;25.60;48.66;99828.58;1777022;80;21090;-57
2022/06/17 00:22:44;;;;;;;5.87;3.40;;;;;;;25.59;48.68;99827.48;1779109;80;21125;-56
2022/06/17 00:25:31;;;;;;;4.75;3.37;;;;;;;25.58;48.70;99828.03;1782777;80;21107;-56
2022/06/17 00:27:58;;;;;;;5.72;3.25;;;;;;;25.58;48.70;99821.78;1769673;80;21523;-56
2022/06/17 00:30:28;;;;;;;5.12;3.37;;;;;;;25.57;48.71;99822.84;1786934;80;21100;-58
2022/06/17 00:32:57;;;;;;;3.65;3.20;;;;;;;25.55;48.74;99821.74;1780701;79;21069;-56
2022/06/17 00:35:31;;;;;;;5.05;3.55;;;;;;;25.56;48.76;99830.75;1782833;80;21085;-56
2022/06/17 00:37:58;;;;;;;3.65;3.20;;;;;;;25.54;48.79;99817.41;1767605;80;21034;-57
2022/06/17 00:40:26;;;;;;;5.30;3.62;;;;;;;25.54;48.83;99817.95;1756540;80;22031;-58
2022/06/17 00:42:53;;;;;;;7.33;3.70;;;;;;;25.53;48.87;99813.59;1786115;80;21049;-57
2022/06/17 00:45:46;;;;;;;3.70;3.17;;;;;;;25.51;48.85;99813.84;1770756;80;20994;-57
2022/06/17 00:48:26;;;;;;;5.62;3.67;;;;;;;25.52;48.89;99812.77;1754720;79;22158;-58
2022/06/17 00:51:00;;;;;;;6.12;3.42;;;;;;;25.50;48.87;99806.78;1756301;79;21568;-57
2022/06/17 00:53:36;;;;;;;3.75;3.22;;;;;;;25.50;48.91;99806.78;1769846;79;21100;-57
2022/06/17 00:56:15;;;;;;;5.30;3.70;;;;;;;25.48;48.90;99804.33;1771875;79;21044;-56
2022/06/17 00:59:07;;;;;;;4.62;3.58;;;;;;;25.48;48.92;99805.69;1771118;79;21030;-57
2022/06/17 01:01:50;;;;;;;5.00;3.60;;;;;;;25.48;48.91;99807.59;1760640;80;21518;-58
2022/06/17 01:04:21;;;;;;;4.78;3.83;;;;;;;25.47;48.93;99806.75;1777929;80;21003;-58
2022/06/17 01:06:53;;;;;;;3.72;3.37;;;;;;;25.45;48.93;99805.39;1760581;79;21072;-57
2022/06/17 01:12:15;;;;;;;4.22;3.83;;;;;;;25.45;48.93;99799.95;1771961;80;21781;-57
2022/06/17 01:14:42;;;;;;;4.33;3.47;;;;;;;25.43;48.95;99798.85;1754376;79;22083;-57
2022/06/17 01:17:11;;;;;;;4.03;3.62;;;;;;;25.42;48.97;99801.31;1779092;79;21009;-57
2022/06/17 01:19:51;;;;;;;4.15;3.62;;;;;;;25.42;48.96;99796.39;1777324;80;21010;-58
2022/06/17 01:22:42;;;;;;;5.42;3.52;;;;;;;25.41;49.00;99791.50;1775081;79;21014;-57
2022/06/17 01:25:26;;;;;;;4.40;4.00;;;;;;;25.39;49.00;99789.59;1776428;80;21045;-57
2022/06/17 01:28:03;;;;;;;5.62;3.85;;;;;;;25.39;49.02;99785.52;1766123;80;21144;-57
2022/06/17 01:30:41;;;;;;;6.50;3.55;;;;;;;25.39;49.04;99786.06;1779607;79;21034;-57
2022/06/17 01:33:28;;;;;;;3.83;3.30;;;;;;;25.38;49.03;99795.29;1783137;79;21037;-58
2022/06/17 01:36:18;;;;;;;4.95;4.28;;;;;;;25.38;49.06;99784.41;1780844;79;21924;-57
2022/06/17 01:38:52;;;;;;;6.12;3.75;;;;;;;25.36;49.09;99786.03;1779081;80;20989;-57
2022/06/17 01:41:25;;;;;;;4.25;3.60;;;;;;;25.34;49.10;99780.05;1791522;80;21114;-57
2022/06/17 01:43:56;;;;;;;4.45;3.50;;;;;;;25.35;49.11;99786.32;1785615;79;21017;-58
2022/06/17 01:46:36;;;;;;;3.87;3.52;;;;;;;25.35;49.13;99787.67;1779375;80;21008;-57
2022/06/17 01:49:19;;;;;;;4.37;3.50;;;;;;;25.34;49.16;99783.31;1765328;80;21087;-58
2022/06/17 01:52:12;;;;;;;4.33;3.40;;;;;;;25.34;49.18;99779.23;1771580;78;20998;-56
2022/06/17 01:54:54;;;;;;;4.53;3.77;;;;;;;25.31;49.18;99780.04;1784791;80;21124;-57
2022/06/17 01:57:26;;;;;;;4.00;3.60;;;;;;;25.31;49.18;99780.04;1784120;79;21498;-55
2022/06/17 01:59:57;;;;;;;3.58;3.27;;;;;;;25.30;49.25;99781.14;1772534;79;21028;-57
2022/06/17 02:02:25;;;;;;;5.15;3.60;;;;;;;25.31;49.23;99780.59;1784987;79;21012;-56
2022/06/17 02:04:57;;;;;;;4.00;3.37;;;;;;;25.31;49.23;99784.66;1791698;80;21035;-56
2022/06/17 02:07:38;;;;;;;3.77;3.45;;;;;;;25.31;49.26;99780.59;1775810;80;21070;-56
2022/06/17 02:10:06;;;;;;;6.12;3.87;;;;;;;25.30;49.29;99772.98;1787590;80;22029;-56
2022/06/17 02:12:33;;;;;;;5.35;4.17;;;;;;;25.30;49.29;99777.06;1778787;80;21098;-56
2022/06/17 02:15:02;;;;;;;3.83;3.40;;;;;;;25.30;49.29;99771.63;1743826;80;21032;-56
2022/06/17 02:17:44;;;;;;;4.75;3.52;;;;;;;25.31;49.29;99774.60;1783083;78;21025;-57
2022/06/17 02:20:26;;;;;;;5.10;3.75;;;;;;;25.30;49.32;99771.63;1788277;80;21141;-56
2022/06/17 02:22:53;;;;;;;3.65;3.35;;;;;;;25.29;49.30;99774.05;1783445;79;21451;-57
2022/06/17 02:25:29;;;;;;;4.28;3.70;;;;;;;25.30;49.34;99765.34;1770921;79;21518;-56
2022/06/17 02:27:57;;;;;;;;;;;;;;;25.30;49.34;99763.98;1777632;80;21053;-57
2022/06/17 02:30:28;;;;;;;5.28;3.47;;;;;;;25.29;49.37;99761.00;1764541;80;20197;-57
2022/06/17 02:33:01;;;;;;;3.55;3.22;;;;;;;25.28;49.35;99759.36;1777738;79;21107;-56
2022/06/17 02:35:52;;;;;;;4.35;3.77;;;;;;;25.28;49.37;99762.08;1766104;80;21522;-57
2022/06/17 02:38:21;;;;;;;5.97;4.00;;;;;;;25.28;49.37;99758.84;1779028;80;20998;-57
2022/06/17 02:40:51;;;;;;;6.28;3.75;;;;;;;25.27;49.35;99753.66;1785721;79;21022;-56
2022/06/17 02:43:22;;;;;;;4.87;4.12;;;;;;;25.27;49.35;99757.73;1785381;80;21025;-56
2022/06/17 02:46:00;;;;;;;4.83;4.00;;;;;;;25.27;49.37;99753.66;1786332;79;21156;-57
2022/06/17 02:48:34;;;;;;;4.25;3.70;;;;;;;25.27;49.37;99750.94;1758787;78;21005;-56
2022/06/17 02:51:00;;;;;;;5.42;3.50;;;;;;;25.28;49.35;99756.64;1772282;80;21123;-57
2022/06/17 02:53:35;;;;;;;4.62;3.60;;;;;;;25.28;49.37;99760.20;1777738;79;21056;-56
2022/06/17 02:56:20;;;;;;;5.03;3.95;;;;;;;25.27;49.38;99758.55;1785533;79;21523;-56
2022/06/17 02:59:08;;;;;;;3.98;3.58;;;;;;;25.28;49.39;99756.12;1781726;79;21144;-57
2022/06/17 03:01:38;;;;;;;3.67;3.37;;;;;;;25.27;49.40;99751.75;1774523;80;21050;-57
2022/06/17 03:04:13;;;;;;;5.42;3.92;;;;;;;25.27;49.41;99750.94;1759958;80;21033;-57
2022/06/17 03:06:41;;;;;;;5.10;3.72;;;;;;;25.27;49.45;99746.31;1763521;80;21080;-56
2022/06/17 03:09:27;;;;;;;5.55;4.03;;;;;;;25.27;49.45;99753.11;1778591;80;21017;-56
2022/06/17 03:12:18;;;;;;;6.08;3.92;;;;;;;25.27;49.45;99749.03;1784537;79;22181;-56
2022/06/17 03:15:05;;;;;;;5.78;3.55;;;;;;;25.27;49.49;99753.11;1775256;79;21012;-58
2022/06/17 03:17:38;;;;;;;5.03;4.28;;;;;;;25.26;49.53;99748.73;1771815;80;21489;-56
2022/06/17 03:20:10;;;;;;;5.83;3.77;;;;;;;25.26;49.52;99748.73;1783489;80;21095;-57
2022/06/17 03:22:36;;;;;;;4.33;3.75;;;;;;;25.26;49.54;99750.09;1777944;80;21014;-57
2022/06/17 03:25:18;;;;;;;8.03;4.05;;;;;;;25.27;49.57;99755.02;1776464;79;21159;-57
2022/06/17 03:27:55;;;;;;;5.30;3.85;;;;;;;25.26;49.59;99752.81;1777191;78;21052;-56
2022/06/17 03:30:33;;;;;;;6.97;4.17;;;;;;;25.27;49.62;99749.58;1778142;79;20991;-56
2022/06/17 03:33:17;;;;;;;6.42;3.77;;;;;;;25.26;49.63;99751.45;1768536;79;21082;-57
2022/06/17 03:35:45;;;;;;;4.60;4.10;;;;;;;25.28;49.71;99753.40;1786955;79;21127;-58
2022/06/17 03:38:33;;;;;;;11.22;3.72;;;;;;;25.27;49.78;99744.14;1773554;80;21243;-58
2022/06/17 03:41:32;;;;;;;7.47;4.05;;;;;;;25.28;49.81;99749.84;1783897;80;20987;-56
2022/06/17 03:44:15;;;;;;;6.22;3.90;;;;;;;25.27;49.84;99746.31;1766238;80;21002;-57
2022/06/17 03:46:57;;;;;;;5.40;4.05;;;;;;;25.27;49.89;99747.67;1773759;80;20982;-60
2022/06/17 03:49:50;;;;;;;9.60;3.83;;;;;;;25.28;49.98;99745.77;1791273;80;21002;-57
2022/06/17 03:52:29;;;;;;;4.10;3.67;;;;;;;25.28;50.09;99742.52;1780470;80;21138;-58
2022/06/17 03:54:58;;;;;;;9.13;3.90;;;;;;;25.27;50.13;99746.31;1739419;81;21049;-57
2022/06/17 03:57:25;;;;;;;8.85;4.35;;;;;;;25.29;50.22;99750.13;1724683;81;21010;-56
2022/06/17 03:59:52;;;;;;;6.47;4.10;;;;;;;25.29;50.21;99741.42;1717120;82;21486;-58
2022/06/17 04:02:19;;;;;;;5.45;4.40;;;;;;;25.30;50.19;99746.31;1739121;82;21501;-57
2022/06/17 04:04:51;;;;;;;8.40;4.33;;;;;;;25.31;50.14;99746.61;1748785;82;21245;-57
2022/06/17 04:07:18;;;;;;;8.93;4.65;;;;;;;25.31;50.11;99743.34;1740803;82;21096;-57
2022/06/17 04:09:50;;;;;;;7.78;3.83;;;;;;;25.32;50.09;99735.98;1722559;82;21597;-57
2022/06/17 04:12:21;;;;;;;8.30;4.78;;;;;;;25.33;50.01;99740.36;1725289;82;21613;-57
2022/06/17 04:15:35;;;;;;;6.53;4.47;;;;;;;25.34;49.98;99741.98;1738735;82;21092;-57
2022/06/17 04:18:02;;;;;;;12.25;5.08;;;;;;;25.35;49.88;99737.38;1731005;82;21083;-58
2022/06/17 04:20:54;;;;;;;6.70;4.75;;;;;;;25.36;49.90;99738.45;1726289;82;21041;-57
2022/06/17 04:23:25;;;;;;;7.60;4.42;;;;;;;25.36;49.89;99737.09;1725601;82;21530;-58
2022/06/17 04:26:09;;;;;;;8.33;5.15;;;;;;;25.37;49.75;99735.20;1688123;82;21030;-57
2022/06/17 04:28:43;;;;;;;7.00;4.37;;;;;;;25.37;49.42;99733.84;1719063;82;21065;-58
2022/06/17 04:31:20;;;;;;;6.22;4.37;;;;;;;25.38;49.34;99736.83;1722753;82;21083;-57
2022/06/17 04:34:09;;;;;;;6.75;4.53;;;;;;;25.40;49.28;99737.38;1732990;82;21049;-57
2022/06/17 04:36:51;;;;;;;8.20;4.65;;;;;;;25.40;49.13;99732.78;1745944;82;21305;-57
2022/06/17 04:39:29;;;;;;;7.33;4.90;;;;;;;25.43;49.09;99742.30;1730064;82;21069;-58
2022/06/17 04:42:02;;;;;;;5.90;4.53;;;;;;;25.43;49.01;99739.02;1740440;82;21076;-58
2022/06/17 04:44:30;;;;;;;6.83;4.47;;;;;;;25.45;48.83;99731.97;1727157;82;21153;-58
2022/06/17 04:47:13;;;;;;;6.28;4.97;;;;;;;25.47;48.81;99737.95;1707472;82;22102;-58
2022/06/17 04:49:54;;;;;;;7.92;4.67;;;;;;;25.49;48.56;99733.06;1732563;82;21090;-56
2022/06/17 04:52:35;;;;;;;6.92;4.40;;;;;;;25.51;48.36;99734.97;1738988;82;21061;-58
2022/06/17 04:55:35;;;;;;;11.35;4.92;;;;;;;25.54;48.24;99731.73;1717463;82;21069;-56
2022/06/17 04:58:18;;;;;;;7.72;4.70;;;;;;;25.56;48.34;99728.20;1745860;82;21360;-58
2022/06/17 05:00:51;;;;;;;7.08;4.70;;;;;;;25.58;48.06;99731.47;1747269;82;21041;-58
2022/06/17 05:03:24;;;;;;;6.45;4.85;;;;;;;25.60;48.12;99724.41;1729457;82;21062;-58
2022/06/17 05:05:54;;;;;;;7.58;5.15;;;;;;;25.62;47.81;99727.67;1738631;81;21050;-57
2022/06/17 05:08:28;;;;;;;5.33;4.70;;;;;;;25.64;47.85;99725.50;1747884;82;21082;-57
2022/06/17 05:11:02;;;;;;;6.80;4.87;;;;;;;25.67;48.09;99723.59;1736083;80;21120;-58
2022/06/17 05:13:40;;;;;;;6.90;4.70;;;;;;;25.70;47.89;99725.78;1701895;83;21061;-58
2022/06/17 05:16:12;;;;;;;7.62;5.25;;;;;;;25.73;47.48;99724.42;1737018;82;21103;-58
2022/06/17 05:18:37;;;;;;;6.72;4.90;;;;;;;25.74;47.38;99723.34;1728536;82;21061;-58
2022/06/17 05:21:18;;;;;;;5.40;4.53;;;;;;;25.76;47.54;99727.97;1723156;82;21045;-59
2022/06/17 05:23:46;;;;;;;6.37;4.80;;;;;;;25.78;47.51;99723.89;1720551;82;21790;-59
2022/06/17 05:26:13;;;;;;;6.95;4.60;;;;;;;25.81;47.34;99723.91;1730851;82;21042;-57
2022/06/17 05:28:39;;;;;;;5.83;4.45;;;;;;;25.83;47.10;99719.83;1730583;82;21065;-57
2022/06/17 05:31:10;;;;;;;5.28;4.67;;;;;;;25.85;46.81;99716.29;1738057;82;21516;-58
2022/06/17 05:33:38;;;;;;;8.93;4.50;;;;;;;25.87;46.61;99718.75;1730175;82;21034;-57
2022/06/17 05:36:06;;;;;;;7.62;5.00;;;;;;;25.89;46.40;99713.85;1742072;82;21157;-58
2022/06/17 05:38:33;;;;;;;7.75;5.17;;;;;;;25.91;46.41;99711.70;1726458;82;21212;-57
2022/06/17 05:41:00;;;;;;;7.25;4.50;;;;;;;25.93;46.17;99710.89;1742565;80;21023;-58
2022/06/17 05:43:27;;;;;;;7.40;4.05;;;;;;;25.95;45.90;99712.80;1745879;80;21057;-59
2022/06/17 05:45:54;;;;;;;5.60;4.05;;;;;;;25.97;45.58;99715.25;1761735;80;21481;-59
2022/06/17 05:48:28;;;;;;;8.45;4.20;;;;;;;25.97;45.54;99713.34;1775158;78;22096;-57
2022/06/17 05:50:58;;;;;;;6.08;3.60;;;;;;;25.98;44.47;99714.14;1773119;78;21540;-57
2022/06/17 05:53:27;;;;;;;3.85;3.45;;;;;;;25.97;44.13;99712.53;1781519;80;21033;-58
2022/06/17 05:55:58;;;;;;;5.03;3.47;;;;;;;25.97;43.81;99713.89;1778005;78;21081;-63
2022/06/17 05:58:25;;;;;;;3.37;2.95;;;;;;;25.96;43.71;99710.87;1765410;80;21103;-59
2022/06/17 06:00:53;;;;;;;6.28;2.95;;;;;;;25.97;43.98;99711.17;1778193;80;21152;-60
2022/06/17 06:03:25;;;;;;;5.00;3.45;;;;;;;26.00;43.72;99707.36;1784711;80;21010;-59
2022/06/17 06:05:52;;;;;;;4.47;2.95;;;;;;;26.03;43.70;99709.53;1774699;80;21537;-58
2022/06/17 06:08:20;;;;;;;6.47;3.10;;;;;;;26.06;43.51;99706.28;1783032;80;21010;-59
2022/06/17 06:10:48;;;;;;;5.17;3.27;;;;;;;26.07;43.27;99703.81;1786289;78;21463;-58
2022/06/17 06:13:22;;;;;;;3.70;3.25;;;;;;;26.09;43.43;99701.63;1786438;80;21161;-59
2022/06/17 06:15:53;;;;;;;;;;;;;;;26.13;43.67;99702.45;1771546;80;21046;-59
2022/06/17 06:18:33;;;;;;;9.55;3.27;;;;;;;26.16;43.67;99708.19;1774112;79;20180;-60
2022/06/17 06:21:04;;;;;;;4.67;3.35;;;;;;;26.17;43.42;99704.35;1780064;79;21074;-59
2022/06/17 06:23:33;;;;;;;4.65;3.05;;;;;;;26.19;43.52;99705.45;1770365;79;21056;-60
2022/06/17 06:26:00;;;;;;;4.55;2.85;;;;;;;26.22;43.73;99703.55;1776895;80;21123;-62
2022/06/17 06:28:27;;;;;;;3.98;2.70;;;;;;;26.24;43.72;99704.09;1765115;80;21100;-60
2022/06/17 06:31:09;;;;;;;7.03;3.33;;;;;;;26.26;43.35;99700.55;1777288;78;21010;-59
2022/06/17 06:33:36;;;;;;;7.30;3.05;;;;;;;26.28;43.16;99701.09;1773460;80;21101;-59
2022/06/17 06:36:06;;;;;;;5.33;3.77;;;;;;;26.29;42.86;99705.47;1779130;80;21076;-60
2022/06/17 06:38:33;;;;;;;5.67;3.47;;;;;;;26.30;42.92;99701.64;1782454;80;21152;-58
2022/06/17 06:41:03;;;;;;;5.05;3.47;;;;;;;26.33;42.85;99701.10;1791136;79;21038;-60
2022/06/17 06:43:29;;;;;;;4.15;3.08;;;;;;;26.33;42.72;99705.19;1791829;79;21033;-60
2022/06/17 06:46:16;;;;;;;8.88;3.60;;;;;;;26.34;42.34;99701.36;1791738;80;21041;-59
2022/06/17 06:48:45;;;;;;;5.03;3.37;;;;;;;26.34;42.16;99694.55;1791622;79;21474;-58
2022/06/17 06:51:11;;;;;;;3.95;2.90;;;;;;;26.33;42.11;99701.63;1769138;80;21135;-60
2022/06/17 06:53:38;;;;;;;6.95;3.65;;;;;;;26.35;42.19;99698.92;1791673;79;21006;-58
2022/06/17 06:56:05;;;;;;;4.28;3.50;;;;;;;26.36;42.25;99697.01;1791801;79;21009;-60
2022/06/17 06:58:32;;;;;;;5.72;3.30;;;;;;;26.37;42.42;99699.46;1774818;78;21016;-59
2022/06/17 07:01:00;;;;;;;6.12;3.75;;;;;;;26.39;42.29;99702.73;1783198;79;21073;-59
2022/06/17 07:03:28;;;;;;;3.67;3.10;;;;;;;26.40;42.31;99697.53;1787915;79;21038;-62
2022/06/17 07:06:01;;;;;;;5.47;4.00;;;;;;;26.41;42.15;99697.02;1769358;80;21073;-60
2022/06/17 07:08:32;;;;;;;8.17;3.83;;;;;;;26.42;42.13;99694.55;1791270;80;20987;-59
2022/06/17 07:10:59;;;;;;;6.58;3.92;;;;;;;26.41;42.23;99700.55;1792223;80;21006;-61
2022/06/17 07:13:29;;;;;;;11.35;4.12;;;;;;;26.43;42.44;99694.28;1792188;80;21025;-59
2022/06/17 07:15:57;;;;;;;4.30;3.02;;;;;;;26.45;42.27;99698.09;1791860;79;21073;-61
2022/06/17 07:18:31;;;;;;;6.92;4.00;;;;;;;26.46;42.14;99691.54;1771875;80;21692;-59
2022/06/17 07:21:05;;;;;;;5.92;3.50;;;;;;;26.46;41.72;99696.47;1792104;80;21022;-61
2022/06/17 07:23:41;;;;;;;6.80;3.17;;;;;;;26.47;41.97;99697.27;1791733;80;21404;-59
2022/06/17 07:26:20;;;;;;;4.35;3.05;;;;;;;26.48;42.12;99701.09;1790510;79;21049;-59
2022/06/17 07:28:49;;;;;;;4.12;3.33;;;;;;;26.49;41.71;99705.98;1791461;80;22143;-59
2022/06/17 07:31:16;;;;;;;7.20;3.27;;;;;;;26.49;41.73;99698.63;1791563;80;21010;-60
2022/06/17 07:33:42;;;;;;;5.05;3.08;;;;;;;26.51;41.79;99702.99;1791598;80;21037;-59
2022/06/17 07:41:44;;;;;;;6.20;3.10;;;;;;;26.54;41.12;99702.42;1790493;80;21128;-59
2022/06/17 07:44:11;;;;;;;4.53;2.62;;;;;;;26.53;40.11;99701.62;1791295;78;21138;-60
2022/06/17 07:46:37;;;;;;;5.75;2.67;;;;;;;26.53;39.72;99696.72;1781767;80;21089;-59
2022/06/17 07:49:04;;;;;;;4.92;3.00;;;;;;;26.54;40.13;99696.98;1791862;80;21081;-59
2022/06/17 07:51:31;;;;;;;3.98;2.92;;;;;;;26.55;40.65;99694.53;1770034;79;22013;-58
2022/06/17 07:53:58;;;;;;;6.53;3.02;;;;;;;26.57;40.84;99697.25;1790761;80;21285;-59
2022/06/17 07:56:24;;;;;;;3.80;2.85;;;;;;;26.62;40.85;99697.83;1791679;80;21471;-59
2022/06/17 07:58:52;;;;;;;3.98;2.52;;;;;;;26.63;40.42;99704.34;1790406;80;21095;-60
2022/06/17 08:01:19;;;;;;;5.30;2.87;;;;;;;26.66;40.54;99703.80;1791671;80;20991;-59
2022/06/17 08:03:45;;;;;;;5.42;3.00;;;;;;;26.70;40.71;99693.17;1772795;80;21052;-58
2022/06/17 08:06:13;;;;;;;4.78;2.70;;;;;;;26.73;40.96;99702.14;1792087;80;21138;-60
2022/06/17 08:08:41;;;;;;;4.05;2.77;;;;;;;26.76;40.88;99708.41;1776118;79;22022;-58
2022/06/17 08:11:09;;;;;;;5.28;2.90;;;;;;;26.76;39.37;99694.79;1791729;79;21017;-58
2022/06/17 08:13:36;;;;;;;7.03;2.40;;;;;;;26.75;39.02;99699.14;1791711;80;21104;-59
2022/06/17 08:16:06;;;;;;;3.05;2.62;;;;;;;26.73;38.81;99697.25;1790495;80;21552;-60
2022/06/17 08:18:34;;;;;;;4.10;2.33;;;;;;;26.72;38.97;99690.18;1791777;80;21100;-58
2022/06/17 08:21:00;;;;;;;3.37;2.40;;;;;;;26.72;39.28;99699.72;1791344;80;20991;-59
2022/06/17 08:23:27;;;;;;;3.15;2.27;;;;;;;26.71;39.19;99696.16;1790893;80;21010;-58
2022/06/17 08:25:55;;;;;;;2.42;2.17;;;;;;;26.72;39.01;99696.99;1785615;80;21089;-59
2022/06/17 08:28:21;;;;;;;2.30;1.90;;;;;;;26.70;38.79;99697.81;1791681;80;22126;-60
2022/06/17 08:30:51;;;;;;;4.30;2.42;;;;;;;26.67;38.70;99697.25;1791495;80;21211;-59
2022/06/17 08:33:26;;;;;;;3.67;2.08;;;;;;;26.65;38.58;99695.90;1790354;80;21522;-59
2022/06/17 08:35:48;;;;;;;4.20;2.00;;;;;;;26.63;38.59;99692.64;1787689;79;21022;-59
2022/06/17 08:38:25;;;;;;;4.08;2.52;;;;;;;26.62;38.55;99699.19;1780624;80;21065;-59
2022/06/17 08:40:58;;;;;;;4.42;2.25;;;;;;;26.62;39.00;99696.47;1777541;79;21065;-60
2022/06/17 08:43:52;;;;;;;3.80;2.20;;;;;;;26.64;39.07;99697.01;1774385;80;21855;-59
2022/06/17 08:50:03;;;;;;;3.05;2.20;;;;;;;26.70;38.78;99702.71;1829453;77;22599;-59
2022/06/17 08:53:21;;;;;;;2.65;2.10;;;;;;;26.68;38.70;99695.36;1792093;79;21561;-60
2022/06/17 08:55:56;;;;;;;3.45;2.05;;;;;;;26.69;38.80;99691.53;1801418;78;21175;-60
2022/06/17 08:58:31;;;;;;;2.12;1.87;;;;;;;26.70;38.64;99689.09;1776554;78;21580;-59
2022/06/17 09:01:33;;;;;;;4.08;2.60;;;;;;;26.70;38.91;99689.09;1788275;80;21071;-58
2022/06/17 09:04:20;;;;;;;3.33;2.22;;;;;;;26.73;39.12;99693.16;1791956;80;20942;-59
2022/06/17 09:07:20;;;;;;;3.52;2.30;;;;;;;26.75;39.17;99679.52;1790967;80;20978;-60
2022/06/17 09:09:56;;;;;;;3.05;2.10;;;;;;;26.76;39.09;99682.53;1792243;79;21215;-60
2022/06/17 09:12:59;;;;;;;2.58;2.08;;;;;;;26.75;38.91;99678.70;1791980;79;21541;-59
2022/06/17 09:15:37;;;;;;;3.35;1.80;;;;;;;26.76;39.06;99687.98;1781810;80;20965;-58
2022/06/17 09:18:30;;;;;;;3.65;2.17;;;;;;;26.78;39.40;99682.26;1790193;80;21022;-60
2022/06/17 09:21:11;;;;;;;3.02;2.15;;;;;;;26.80;39.30;99676.79;1788120;78;21099;-59
2022/06/17 09:23:39;;;;;;;3.17;2.20;;;;;;;26.82;39.44;99671.06;1789594;79;21140;-59
2022/06/17 09:26:23;;;;;;;4.10;2.17;;;;;;;26.84;39.06;99671.05;1792129;80;20974;-59
2022/06/17 09:28:55;;;;;;;3.02;2.70;;;;;;;26.85;39.10;99671.89;1753912;80;21065;-60
2022/06/17 09:31:26;;;;;;;3.40;2.27;;;;;;;26.87;38.66;99676.52;1787972;79;21003;-60
2022/06/17 09:34:10;;;;;;;2.40;2.12;;;;;;;26.87;38.25;99677.31;1785210;80;21014;-60
2022/06/17 09:36:48;;;;;;;4.03;1.92;;;;;;;26.88;38.20;99669.39;1792086;80;21146;-59
2022/06/17 09:39:31;;;;;;;2.62;1.87;;;;;;;26.89;38.33;99668.88;1787569;79;21039;-59
2022/06/17 09:42:04;;;;;;;;;;;;;;;26.95;38.88;99669.67;1793691;79;21025;-60
2022/06/17 09:44:35;;;;;;;4.10;2.77;;;;;;;26.99;39.31;99663.92;1791586;79;20472;-60
2022/06/17 09:47:31;;;;;;;6.62;2.47;;;;;;;27.02;38.77;99670.16;1792357;80;21037;-59
2022/06/17 09:50:06;;;;;;;2.50;1.87;;;;;;;27.04;38.17;99664.72;1773568;80;21151;-59
2022/06/17 09:52:40;;;;;;;3.55;2.00;;;;;;;27.09;38.55;99672.05;1791203;80;21048;-61
2022/06/17 09:55:16;;;;;;;2.60;2.00;;;;;;;27.14;37.73;99652.95;1792086;80;21032;-60
2022/06/17 09:57:57;;;;;;;2.83;2.12;;;;;;;27.19;37.31;99665.73;1790893;79;21038;-60
2022/06/17 10:00:28;;;;;;;2.75;2.10;;;;;;;27.24;38.15;99658.91;1791602;80;21045;-60
2022/06/17 10:03:24;;;;;;;3.85;2.15;;;;;;;27.30;39.19;99662.45;1789982;78;21105;-60
2022/06/17 10:06:05;;;;;;;2.80;2.22;;;;;;;27.33;38.51;99660.51;1778488;80;21561;-60
2022/06/17 10:09:12;;;;;;;5.03;2.25;;;;;;;27.36;39.25;99653.95;1770727;80;21041;-60
2022/06/17 10:12:01;;;;;;;4.08;2.33;;;;;;;27.38;39.75;99650.94;1791399;80;21509;-58
2022/06/17 10:14:51;;;;;;;3.00;1.95;;;;;;;27.39;39.28;99652.56;1790464;80;21021;-60
2022/06/17 10:21:06;;;;;;;3.75;1.90;;;;;;;27.41;37.53;99658.55;1791502;80;20990;-60
2022/06/17 10:24:13;;;;;;;3.30;2.17;;;;;;;27.39;36.94;99652.03;1787090;80;21050;-60
2022/06/17 10:27:14;;;;;;;2.92;2.20;;;;;;;27.39;37.42;99651.19;1791380;80;21056;-59
2022/06/17 10:55:24;;;;;;;3.83;2.45;;;;;;;28.90;35.72;99628.04;1791271;79;22163;-81
2022/06/17 10:58:19;;;;;;;2.47;2.25;;;;;;;28.99;35.84;99630.92;1752169;80;20973;-78
2022/06/17 11:01:11;;;;;;;3.55;2.40;;;;;;;29.26;35.78;99624.03;1757075;81;20990;-77
2022/06/17 11:03:39;;;;;;;4.25;2.37;;;;;;;29.59;35.13;99630.38;1757114;81;21054;-81
2022/06/17 11:06:17;;;;;;;2.90;2.22;;;;;;;29.47;35.08;99627.29;1756233;81;20950;-81
2022/06/17 11:08:58;;;;;;;3.22;2.90;;;;;;;29.37;35.13;99629.63;1757143;81;21069;-79
2022/06/17 11:12:13;;;;;;;3.62;2.50;;;;;;;29.46;35.23;99619.64;1757163;81;21522;-82
2022/06/17 11:14:43;;;;;;;3.45;2.30;;;;;;;29.62;35.38;99623.52;1753630;81;21021;-81
2022/06/17 11:17:36;;;;;;;3.75;2.70;;;;;;;29.72;35.32;99622.81;1739979;81;21045;-82
2022/06/17 11:20:23;;;;;;;3.98;3.00;;;;;;;29.87;35.10;99629.16;1724195;81;21008;-80
2022/06/17 11:22:59;;;;;;;2.95;2.22;;;;;;;29.97;34.83;99624.88;1740788;81;21034;-82
2022/06/17 11:25:33;;;;;;;6.25;2.75;;;;;;;29.98;35.24;99627.31;1741140;81;21136;-81
2022/06/17 11:28:24;;;;;;;3.02;2.62;;;;;;;29.91;34.18;99623.34;1739444;81;21933;-81
2022/06/17 11:31:01;;;;;;;4.55;3.58;;;;;;;29.69;34.44;99624.77;1757528;81;21050;-82
2022/06/17 11:33:35;;;;;;;5.60;4.28;;;;;;;29.56;35.34;99626.88;1750604;81;21105;-79
2022/06/17 11:36:16;;;;;;;6.90;3.90;;;;;;;29.65;35.39;99624.27;1750463;81;21049;-79
2022/06/17 11:38:43;;;;;;;6.33;3.47;;;;;;;29.93;35.08;99616.44;1741771;82;21034;-79
2022/06/17 11:41:10;;;;;;;10.00;4.95;;;;;;;30.48;34.34;99619.05;1737558;82;21543;-80
2022/06/17 11:43:45;;;;;;;6.42;5.22;;;;;;;31.06;33.72;99616.23;1748385;82;21098;-80
2022/06/17 11:46:24;;;;;;;10.35;6.25;;;;;;;31.48;33.66;99612.29;1686150;85;21037;-79
2022/06/17 11:48:55;;;;;;;7.40;6.10;;;;;;;31.70;33.28;99607.38;1679791;84;21128;-80
2022/06/17 11:51:38;;;;;;;8.43;5.58;;;;;;;31.97;33.48;99609.73;1668509;84;21628;-79
2022/06/17 11:54:12;;;;;;;9.83;6.03;;;;;;;32.35;33.01;99610.67;1680423;84;21114;-80
2022/06/17 11:56:42;;;;;;;7.58;4.92;;;;;;;32.80;32.67;99613.84;1680784;84;20995;-79
2022/06/17 11:59:18;;;;;;;6.35;5.50;;;;;;;33.27;32.17;99612.74;1682155;85;21076;-77
2022/06/17 12:01:58;;;;;;;8.10;4.78;;;;;;;33.76;31.74;99602.36;1688292;85;21533;-80
2022/06/17 12:04:55;;;;;;;5.92;4.15;;;;;;;33.99;31.09;99614.56;1685351;85;21050;-78
2022/06/17 12:07:49;;;;;;;3.95;3.62;;;;;;;33.96;30.51;99611.91;1659256;85;21136;-80
2022/06/17 12:10:49;;;;;;;4.10;3.70;;;;;;;33.61;30.28;99598.70;1675530;85;21026;-79
2022/06/17 12:13:40;;;;;;;5.78;4.08;;;;;;;33.02;30.74;99599.98;1682054;84;21121;-80
2022/06/17 12:16:24;;;;;;;5.75;4.40;;;;;;;32.57;31.42;99601.58;1666424;84;21040;-78
2022/06/17 12:18:58;;;;;;;8.70;5.15;;;;;;;32.10;31.80;99606.67;1670630;85;21592;-80
2022/06/17 12:21:51;;;;;;;8.73;5.40;;;;;;;31.59;32.48;99602.45;1686648;85;21241;-79
2022/06/17 12:24:40;;;;;;;6.72;5.50;;;;;;;31.08;33.06;99606.61;1686471;85;21042;-79
2022/06/17 12:27:22;;;;;;;7.65;5.17;;;;;;;30.52;33.76;99617.31;1673419;85;21082;-79
2022/06/17 12:29:58;;;;;;;8.03;5.12;;;;;;;30.23;33.83;99609.34;1686609;85;21595;-79
2022/06/17 12:32:57;;;;;;;6.55;4.97;;;;;;;30.03;34.14;99611.34;1671324;85;21542;-79
2022/06/17 12:35:48;;;;;;;6.67;5.05;;;;;;;29.87;34.48;99615.47;1685310;85;21056;-77
2022/06/17 12:38:25;;;;;;;6.92;5.10;;;;;;;29.61;35.14;99613.09;1682003;85;21098;-79
2022/06/17 12:41:00;;;;;;;7.03;4.60;;;;;;;29.41;35.24;99611.50;1666063;85;21069;-80
2022/06/17 12:43:50;;;;;;;5.35;4.83;;;;;;;29.26;35.53;99611.16;1682358;85;21046;-80
2022/06/17 12:46:22;;;;;;;6.92;4.62;;;;;;;29.07;36.08;99604.84;1670035;84;21106;-79
2022/06/17 12:53:13;;;;;;;7.50;5.22;;;;;;;28.79;36.70;99606.03;1684479;85;21712;-78
2022/06/17 14:22:05;;;;;;;4.17;3.00;;;;;;;25.85;44.41;99588.95;1869689;76;22743;-78
2022/06/17 14:24:50;;;;;;;3.35;3.05;;;;;;;25.91;44.20;99589.25;1827250;78;20980;-79
2022/06/17 14:27:31;;;;;;;2.80;2.60;;;;;;;25.85;44.22;99584.31;1826693;78;21095;-81